Time;durP1;ratioP1;P1;durP2;ratioP2;P2;SDS_P1;SDS_P2;PMS_P1;PMS_P2;Temp;Humidity;BMP_temperature;BMP_pressure;BME280_temperature;BME280_humidity;BME280_pressure;Samples;Min_cycle;Max_cycle;Signal;HPM_P1;HPM_P2
2023/11/01 00:01:03;;;;;;;5.72;2.47;;;9.40;99.90;;;;;;5002256;28;20046;-67
2023/11/01 00:03:29;;;;;;;4.40;2.72;;;9.40;99.90;;;;;;4999008;28;20088;-67
2023/11/01 00:05:55;;;;;;;7.03;3.75;;;9.50;99.90;;;;;;5018086;28;20040;-67
2023/11/01 00:08:21;;;;;;;3.83;2.17;;;9.50;99.90;;;;;;5024936;28;20041;-67
2023/11/01 00:10:46;;;;;;;5.90;2.75;;;9.50;99.90;;;;;;5022625;28;20053;-67
2023/11/01 00:13:12;;;;;;;5.50;2.55;;;9.60;99.90;;;;;;5015550;28;20042;-66
2023/11/01 00:15:38;;;;;;;6.15;2.95;;;9.60;99.90;;;;;;5019058;28;20042;-66
2023/11/01 00:18:03;;;;;;;4.50;3.03;;;9.60;99.90;;;;;;4993567;28;20081;-67
2023/11/01 00:20:29;;;;;;;4.95;3.13;;;9.70;99.90;;;;;;5020577;28;20073;-67
2023/11/01 00:22:55;;;;;;;5.00;3.60;;;9.70;99.90;;;;;;5016720;28;20046;-66
2023/11/01 00:25:21;;;;;;;4.65;2.65;;;9.70;99.90;;;;;;5021684;28;20041;-67
2023/11/01 00:27:47;;;;;;;4.05;2.38;;;9.80;99.90;;;;;;5023172;28;20041;-66
2023/11/01 00:30:12;;;;;;;4.65;2.47;;;9.80;99.90;;;;;;5018744;28;20308;-66
2023/11/01 00:32:39;;;;;;;4.70;2.75;;;9.80;99.90;;;;;;4995743;28;20038;-67
2023/11/01 00:35:06;;;;;;;4.97;2.17;;;9.90;99.90;;;;;;5010008;28;20429;-66
2023/11/01 00:37:32;;;;;;;5.72;2.60;;;9.90;99.90;;;;;;5003655;28;20139;-67
2023/11/01 00:39:57;;;;;;;3.40;2.80;;;9.90;99.90;;;;;;5018144;28;20497;-67
2023/11/01 00:42:23;;;;;;;3.63;2.20;;;10.00;99.90;;;;;;5013169;28;20042;-67
2023/11/01 00:44:49;;;;;;;4.47;2.40;;;9.90;99.90;;;;;;5017259;28;20492;-67
2023/11/01 00:47:15;;;;;;;5.15;2.92;;;9.90;99.90;;;;;;5019366;28;20076;-67
2023/11/01 00:49:41;;;;;;;4.60;3.15;;;9.90;99.90;;;;;;5015584;28;20072;-67
2023/11/01 00:52:07;;;;;;;5.22;3.00;;;9.90;99.90;;;;;;4994795;28;20038;-67
2023/11/01 00:54:33;;;;;;;3.67;2.22;;;9.90;99.90;;;;;;5017300;28;20037;-67
2023/11/01 00:56:59;;;;;;;3.65;2.13;;;9.90;99.90;;;;;;5018116;28;20057;-67
2023/11/01 00:59:24;;;;;;;4.35;2.50;;;9.80;99.90;;;;;;5021800;28;20037;-67
2023/11/01 01:01:50;;;;;;;4.47;3.05;;;9.80;99.90;;;;;;4996518;28;20514;-67
2023/11/01 01:04:16;;;;;;;4.63;2.42;;;9.90;99.90;;;;;;5019457;28;20136;-67
2023/11/01 01:06:42;;;;;;;6.00;2.67;;;9.80;99.90;;;;;;5020865;28;20569;-67
2023/11/01 01:09:07;;;;;;;7.68;2.90;;;9.80;99.90;;;;;;5019055;28;20061;-66
2023/11/01 01:11:33;;;;;;;3.28;1.98;;;9.80;99.90;;;;;;5012752;28;20054;-67
2023/11/01 01:13:59;;;;;;;4.18;2.58;;;9.80;99.90;;;;;;5020673;28;20034;-66
2023/11/01 01:16:24;;;;;;;4.97;1.98;;;9.80;99.90;;;;;;5001357;28;20107;-67
2023/11/01 01:18:50;;;;;;;2.42;1.35;;;9.80;99.90;;;;;;5017220;28;20474;-67
2023/11/01 01:21:17;;;;;;;3.75;2.22;;;9.80;99.90;;;;;;5016021;28;20076;-67
2023/11/01 01:23:42;;;;;;;11.73;2.60;;;9.70;99.90;;;;;;5013382;28;20047;-66
2023/11/01 01:26:08;;;;;;;3.88;2.38;;;9.70;99.90;;;;;;5021674;28;20124;-67
2023/11/01 01:28:34;;;;;;;4.32;2.28;;;9.60;99.90;;;;;;5019773;28;20042;-67
2023/11/01 01:30:59;;;;;;;3.17;1.88;;;9.60;99.90;;;;;;4996484;28;20112;-67
2023/11/01 01:33:25;;;;;;;4.53;1.80;;;9.50;99.90;;;;;;5017197;28;20038;-66
2023/11/01 01:35:52;;;;;;;4.10;2.53;;;9.50;99.90;;;;;;5017434;28;20049;-66
2023/11/01 01:38:17;;;;;;;7.90;2.88;;;9.40;99.90;;;;;;5028461;28;20047;-66
2023/11/01 01:40:43;;;;;;;6.38;2.03;;;9.40;99.90;;;;;;5017756;28;20041;-66
2023/11/01 01:43:23;;;;;;;4.90;2.35;;;9.30;99.90;;;;;;5003973;28;20042;-67
2023/11/01 01:46:02;;;;;;;4.22;2.20;;;9.30;99.90;;;;;;5013643;28;20077;-66
2023/11/01 01:48:28;;;;;;;4.05;2.70;;;9.30;99.90;;;;;;4999015;28;20419;-67
2023/11/01 01:50:54;;;;;;;3.78;1.85;;;9.20;99.90;;;;;;5012112;28;20125;-66
2023/11/01 01:53:20;;;;;;;3.50;2.38;;;9.20;99.90;;;;;;5019082;28;20109;-67
2023/11/01 01:55:46;;;;;;;4.53;2.67;;;9.20;99.90;;;;;;5017066;28;20526;-66
2023/11/01 01:58:13;;;;;;;4.38;2.25;;;9.20;99.90;;;;;;5011529;28;20034;-66
2023/11/01 02:00:39;;;;;;;6.22;2.33;;;9.20;99.90;;;;;;5013539;28;20482;-66
2023/11/01 02:03:04;;;;;;;2.97;1.73;;;9.30;99.90;;;;;;5021068;28;20100;-66
2023/11/01 02:05:30;;;;;;;4.10;2.45;;;9.40;99.90;;;;;;5015236;28;20034;-66
2023/11/01 02:07:56;;;;;;;3.03;1.73;;;9.40;99.90;;;;;;5012391;28;20563;-67
2023/11/01 02:10:23;;;;;;;3.17;1.73;;;9.40;99.90;;;;;;5013216;28;20049;-66
2023/11/01 02:12:48;;;;;;;3.38;2.38;;;9.40;99.90;;;;;;5017209;28;20458;-67
2023/11/01 02:15:14;;;;;;;2.88;1.33;;;9.50;99.90;;;;;;5019289;28;20069;-67
2023/11/01 02:17:40;;;;;;;5.03;2.80;;;9.50;99.90;;;;;;5011681;28;20116;-67
2023/11/01 02:20:07;;;;;;;2.08;1.73;;;9.50;99.90;;;;;;5011491;28;20046;-67
2023/11/01 02:22:33;;;;;;;3.30;1.70;;;9.50;99.90;;;;;;5020910;28;20081;-67
2023/11/01 02:24:59;;;;;;;6.78;2.85;;;9.40;99.90;;;;;;5019376;28;20065;-67
2023/11/01 02:27:25;;;;;;;2.92;1.92;;;9.50;99.90;;;;;;5012374;28;20393;-67
2023/11/01 02:29:51;;;;;;;3.42;2.28;;;9.60;99.90;;;;;;5015051;28;20501;-67
2023/11/01 02:32:17;;;;;;;4.32;3.00;;;9.60;99.90;;;;;;5002649;28;20254;-66
2023/11/01 02:34:43;;;;;;;5.13;2.13;;;9.50;99.90;;;;;;5018135;28;20509;-67
2023/11/01 02:37:08;;;;;;;6.50;2.38;;;9.50;99.90;;;;;;4998286;28;20045;-67
2023/11/01 02:39:34;;;;;;;4.90;3.13;;;9.50;99.90;;;;;;4999921;28;20120;-67
2023/11/01 02:42:00;;;;;;;2.35;1.55;;;9.60;99.90;;;;;;4998910;28;20045;-67
2023/11/01 02:44:25;;;;;;;2.47;1.50;;;9.60;99.90;;;;;;5014255;28;20069;-67
2023/11/01 02:46:51;;;;;;;5.47;2.50;;;9.60;99.90;;;;;;5010977;28;20038;-67
2023/11/01 02:49:17;;;;;;;4.10;2.22;;;9.60;99.90;;;;;;5000054;28;20621;-67
2023/11/01 02:51:42;;;;;;;2.08;1.33;;;9.70;99.90;;;;;;5002314;28;20077;-67
2023/11/01 02:54:08;;;;;;;4.85;2.70;;;9.70;99.90;;;;;;5008065;28;20033;-67
2023/11/01 02:56:34;;;;;;;8.27;2.13;;;9.70;99.90;;;;;;5010342;28;20398;-67
2023/11/01 02:58:59;;;;;;;2.85;1.88;;;9.70;99.90;;;;;;5018079;28;20048;-67
2023/11/01 03:01:26;;;;;;;2.40;1.67;;;9.80;99.90;;;;;;4998260;28;20397;-67
2023/11/01 03:03:51;;;;;;;2.72;1.40;;;9.70;99.90;;;;;;5013560;28;20042;-67
2023/11/01 03:06:17;;;;;;;3.67;2.03;;;9.80;99.90;;;;;;4992206;28;20134;-67
2023/11/01 03:08:46;;;;;;;3.60;1.75;;;9.70;99.90;;;;;;5019573;28;20120;-67
2023/11/01 03:11:12;;;;;;;4.72;2.80;;;9.80;99.90;;;;;;5016851;28;20061;-67
2023/11/01 03:13:38;;;;;;;6.40;1.98;;;9.80;99.90;;;;;;5012193;28;20042;-67
2023/11/01 03:16:04;;;;;;;4.30;2.00;;;9.80;99.90;;;;;;5012122;28;20040;-66
2023/11/01 03:18:29;;;;;;;3.97;2.20;;;9.80;99.90;;;;;;5019298;28;20404;-67
2023/11/01 03:20:56;;;;;;;2.70;1.50;;;9.90;99.90;;;;;;5018165;28;20056;-67
2023/11/01 03:23:22;;;;;;;2.33;1.45;;;9.90;99.90;;;;;;5010447;28;20560;-66
2023/11/01 03:25:48;;;;;;;10.48;2.33;;;9.90;99.90;;;;;;4986373;28;20042;-67
2023/11/01 03:28:13;;;;;;;2.88;1.73;;;9.90;99.90;;;;;;5019092;28;20414;-67
2023/11/01 03:30:39;;;;;;;4.53;1.85;;;10.00;99.90;;;;;;5017049;28;20046;-67
2023/11/01 03:33:05;;;;;;;2.47;1.63;;;10.00;99.90;;;;;;5011083;28;20046;-67
2023/11/01 03:35:30;;;;;;;3.80;2.20;;;10.00;99.90;;;;;;5012579;28;20116;-66
2023/11/01 03:37:56;;;;;;;6.00;2.35;;;10.10;99.90;;;;;;5020516;28;20088;-66
2023/11/01 03:40:22;;;;;;;2.88;1.65;;;10.20;99.90;;;;;;5016713;28;20541;-66
2023/11/01 03:42:47;;;;;;;2.40;1.60;;;10.20;99.90;;;;;;5012671;28;20366;-66
2023/11/01 03:45:13;;;;;;;6.28;2.15;;;10.30;99.90;;;;;;5019535;28;20034;-66
2023/11/01 03:47:39;;;;;;;4.05;1.60;;;10.20;99.90;;;;;;5016806;28;20096;-67
2023/11/01 03:50:05;;;;;;;3.20;1.98;;;10.30;99.90;;;;;;4992966;28;20059;-67
2023/11/01 03:52:31;;;;;;;3.20;1.75;;;10.20;99.90;;;;;;5027646;28;20483;-67
2023/11/01 03:54:57;;;;;;;2.75;1.67;;;10.30;99.90;;;;;;4995526;28;20045;-66
2023/11/01 03:57:22;;;;;;;3.80;2.05;;;10.30;99.90;;;;;;5019095;28;20034;-67
2023/11/01 03:59:48;;;;;;;3.40;1.73;;;10.30;99.90;;;;;;4996225;28;20084;-66
2023/11/01 04:02:14;;;;;;;3.63;2.40;;;10.30;99.90;;;;;;5012700;28;20081;-67
2023/11/01 04:04:39;;;;;;;3.10;1.95;;;10.30;99.90;;;;;;5003363;28;20462;-67
2023/11/01 04:07:05;;;;;;;6.75;1.67;;;10.40;99.90;;;;;;5023708;28;20045;-67
2023/11/01 04:09:31;;;;;;;2.88;1.77;;;10.40;99.90;;;;;;5021600;28;20493;-67
2023/11/01 04:11:56;;;;;;;3.20;1.63;;;10.40;99.90;;;;;;5019231;28;20096;-67
2023/11/01 04:14:22;;;;;;;3.50;1.70;;;10.40;99.90;;;;;;5017675;28;20049;-66
2023/11/01 04:16:48;;;;;;;4.50;2.25;;;10.50;99.90;;;;;;5021758;28;20041;-67
2023/11/01 04:19:14;;;;;;;6.55;1.92;;;10.50;99.90;;;;;;5009832;28;20076;-67
2023/11/01 04:21:40;;;;;;;6.05;2.00;;;10.40;99.90;;;;;;5014410;28;20045;-67
2023/11/01 04:24:09;;;;;;;2.55;1.50;;;10.50;99.90;;;;;;5017700;28;20067;-66
2023/11/01 04:26:35;;;;;;;3.22;1.58;;;10.50;99.90;;;;;;5016461;28;20042;-67
2023/11/01 04:29:01;;;;;;;2.85;1.98;;;10.50;99.90;;;;;;5023509;28;20111;-67
2023/11/01 04:31:29;;;;;;;1.75;1.27;;;10.50;99.90;;;;;;5012722;28;20044;-67
2023/11/01 04:33:57;;;;;;;4.40;2.30;;;10.50;99.90;;;;;;5018996;28;20497;-67
2023/11/01 04:36:25;;;;;;;2.88;1.60;;;10.60;99.90;;;;;;5017651;28;20050;-67
2023/11/01 04:38:53;;;;;;;4.47;2.05;;;10.50;99.90;;;;;;5014057;28;20048;-66
2023/11/01 04:41:20;;;;;;;3.67;1.65;;;10.50;99.90;;;;;;5013964;28;20037;-66
2023/11/01 04:43:47;;;;;;;2.90;1.95;;;10.60;99.90;;;;;;4998676;28;20057;-67
2023/11/01 04:46:14;;;;;;;5.35;1.75;;;10.50;99.90;;;;;;5019127;28;20033;-66
2023/11/01 04:48:39;;;;;;;4.35;1.77;;;10.60;99.90;;;;;;4997502;28;20065;-67
2023/11/01 04:51:05;;;;;;;6.03;1.50;;;10.60;99.90;;;;;;5013384;28;20379;-66
2023/11/01 04:53:31;;;;;;;4.18;1.83;;;10.60;99.90;;;;;;5000811;28;20092;-67
2023/11/01 04:55:56;;;;;;;5.07;1.40;;;10.60;99.90;;;;;;5019189;28;20037;-66
2023/11/01 04:58:22;;;;;;;1.10;0.80;;;10.50;99.90;;;;;;4997606;28;20041;-66
2023/11/01 05:00:49;;;;;;;2.25;1.80;;;10.60;99.90;;;;;;5017443;28;20083;-66
2023/11/01 05:03:16;;;;;;;3.10;1.58;;;10.50;99.90;;;;;;5021254;28;20037;-66
2023/11/01 05:05:41;;;;;;;2.05;1.42;;;10.50;99.90;;;;;;5015957;28;20029;-66
2023/11/01 05:08:07;;;;;;;1.52;1.17;;;10.40;99.90;;;;;;5016754;28;20042;-66
2023/11/01 05:10:33;;;;;;;1.85;0.90;;;10.40;99.90;;;;;;5012892;28;20048;-67
2023/11/01 05:12:58;;;;;;;1.20;1.00;;;10.40;99.90;;;;;;5018963;28;20407;-66
2023/11/01 05:15:24;;;;;;;1.67;1.25;;;10.40;99.90;;;;;;5021260;28;20033;-66
2023/11/01 05:17:51;;;;;;;2.13;1.25;;;10.40;99.90;;;;;;5010678;28;20473;-67
2023/11/01 05:20:17;;;;;;;4.40;1.25;;;10.40;99.90;;;;;;4974416;28;20065;-67
2023/11/01 05:22:43;;;;;;;2.28;1.52;;;10.40;99.90;;;;;;5019685;28;20037;-66
2023/11/01 05:25:13;;;;;;;4.68;1.35;;;10.40;99.90;;;;;;5019318;28;20052;-66
2023/11/01 05:27:42;;;;;;;1.25;0.82;;;10.40;99.90;;;;;;5014837;28;20049;-67
2023/11/01 05:30:14;;;;;;;1.10;0.80;;;10.40;99.90;;;;;;5016032;28;20067;-66
2023/11/01 05:32:42;;;;;;;2.38;1.27;;;10.40;99.90;;;;;;5019262;28;20127;-66
2023/11/01 05:35:08;;;;;;;3.97;1.10;;;10.40;99.90;;;;;;5019813;28;20498;-66
2023/11/01 05:37:33;;;;;;;0.98;0.85;;;10.40;99.90;;;;;;5012621;28;20044;-66
2023/11/01 05:39:59;;;;;;;1.40;0.73;;;10.40;99.90;;;;;;5014137;28;20053;-66
2023/11/01 05:42:25;;;;;;;3.05;1.13;;;10.50;99.90;;;;;;5016083;28;20505;-66
2023/11/01 05:44:51;;;;;;;2.05;0.85;;;10.50;99.90;;;;;;5016531;28;20121;-66
2023/11/01 05:47:17;;;;;;;1.10;0.60;;;10.50;99.90;;;;;;5011505;28;20402;-66
2023/11/01 05:49:42;;;;;;;4.10;1.30;;;10.60;99.90;;;;;;5019928;28;20129;-66
2023/11/01 05:52:09;;;;;;;4.13;1.48;;;10.50;99.90;;;;;;5007028;28;20060;-65
2023/11/01 05:54:35;;;;;;;0.60;0.50;;;10.50;99.90;;;;;;5019483;28;20034;-65
2023/11/01 05:57:01;;;;;;;1.58;0.75;;;10.60;99.90;;;;;;5014577;28;20044;-66
2023/11/01 05:59:27;;;;;;;1.13;0.60;;;10.60;99.90;;;;;;5022354;28;20041;-65
2023/11/01 06:01:53;;;;;;;3.30;1.13;;;10.60;99.90;;;;;;5020777;28;20038;-65
2023/11/01 06:04:20;;;;;;;1.50;0.85;;;10.60;99.90;;;;;;5021563;28;20093;-65
2023/11/01 06:06:46;;;;;;;1.02;0.65;;;10.70;99.90;;;;;;5012997;28;20409;-66
2023/11/01 06:09:16;;;;;;;2.17;0.93;;;10.70;99.90;;;;;;5015731;28;20110;-65
2023/11/01 06:11:43;;;;;;;2.30;0.90;;;10.60;99.90;;;;;;5017021;28;20066;-65
2023/11/01 06:14:08;;;;;;;1.00;0.63;;;10.70;99.90;;;;;;4998642;28;20041;-65
2023/11/01 06:16:34;;;;;;;4.32;0.88;;;10.70;99.90;;;;;;5012882;28;20117;-66
2023/11/01 06:19:00;;;;;;;1.75;0.80;;;10.70;99.90;;;;;;5016778;28;20148;-66
2023/11/01 06:21:26;;;;;;;5.55;0.80;;;10.70;99.90;;;;;;5019386;28;20117;-66
2023/11/01 06:23:52;;;;;;;1.80;0.57;;;10.70;99.90;;;;;;5009990;28;20053;-65
2023/11/01 06:26:19;;;;;;;1.67;0.60;;;10.60;99.90;;;;;;4980174;28;20046;-66
2023/11/01 06:28:44;;;;;;;1.02;0.47;;;10.70;99.90;;;;;;5003823;28;20048;-65
2023/11/01 06:31:12;;;;;;;1.00;0.68;;;10.70;99.90;;;;;;5018569;28;20041;-65
2023/11/01 06:33:38;;;;;;;0.80;0.70;;;10.70;99.90;;;;;;5010282;28;20449;-65
2023/11/01 06:36:04;;;;;;;1.25;0.73;;;10.70;99.90;;;;;;4993999;28;20117;-65
2023/11/01 06:38:30;;;;;;;1.13;0.82;;;10.70;99.90;;;;;;5011345;28;20129;-65
2023/11/01 06:40:56;;;;;;;0.80;0.57;;;10.70;99.90;;;;;;5018092;28;20125;-65
2023/11/01 06:43:21;;;;;;;1.67;0.77;;;10.70;99.90;;;;;;5010974;28;20223;-65
2023/11/01 06:45:47;;;;;;;1.20;0.60;;;10.70;99.90;;;;;;5007062;28;20477;-66
2023/11/01 06:48:14;;;;;;;1.92;0.80;;;10.70;99.90;;;;;;5005360;28;20046;-65
2023/11/01 06:50:40;;;;;;;1.88;0.70;;;10.70;99.90;;;;;;5004688;28;20079;-65
2023/11/01 06:53:06;;;;;;;0.85;0.60;;;10.80;99.90;;;;;;5007268;28;20501;-65
2023/11/01 06:55:32;;;;;;;0.55;0.45;;;10.80;99.90;;;;;;5005840;28;20041;-66
2023/11/01 06:57:58;;;;;;;1.25;0.80;;;10.80;99.90;;;;;;5013181;28;20048;-66
2023/11/01 07:00:24;;;;;;;0.85;0.50;;;10.80;99.90;;;;;;5006143;28;20029;-66
2023/11/01 07:02:50;;;;;;;2.63;0.57;;;10.80;99.90;;;;;;5002900;28;20206;-65
2023/11/01 07:05:16;;;;;;;0.50;0.38;;;10.80;99.90;;;;;;5005821;28;20046;-66
2023/11/01 07:07:42;;;;;;;4.38;0.80;;;10.90;99.90;;;;;;5007184;28;20053;-65
2023/11/01 07:10:08;;;;;;;0.82;0.65;;;10.90;99.90;;;;;;4993642;28;20576;-66
2023/11/01 07:12:34;;;;;;;0.95;0.40;;;10.90;99.90;;;;;;5012045;28;20426;-66
2023/11/01 07:15:00;;;;;;;0.40;0.28;;;10.90;99.90;;;;;;5011901;28;20034;-65
2023/11/01 07:17:27;;;;;;;0.52;0.40;;;10.90;99.90;;;;;;5016089;28;20314;-66
2023/11/01 07:19:54;;;;;;;1.10;0.60;;;10.90;99.90;;;;;;5016698;28;20548;-66
2023/11/01 07:22:21;;;;;;;1.10;0.73;;;10.90;99.90;;;;;;5010795;28;20121;-65
2023/11/01 07:24:47;;;;;;;1.60;0.38;;;10.90;99.90;;;;;;5014425;28;20435;-66
2023/11/01 07:27:12;;;;;;;3.95;0.50;;;11.00;99.90;;;;;;5017556;28;20124;-66
2023/11/01 07:29:38;;;;;;;1.58;0.38;;;10.90;99.90;;;;;;5019315;28;20121;-66
2023/11/01 07:32:04;;;;;;;2.10;0.38;;;11.00;99.90;;;;;;5012164;28;20077;-66
2023/11/01 07:34:30;;;;;;;0.32;0.20;;;10.90;99.90;;;;;;5013915;28;20103;-66
2023/11/01 07:36:55;;;;;;;0.77;0.20;;;10.90;99.90;;;;;;5016015;28;20048;-66
2023/11/01 07:39:21;;;;;;;0.90;0.50;;;11.00;99.90;;;;;;5016420;28;20403;-65
2023/11/01 07:41:47;;;;;;;0.60;0.47;;;11.00;99.90;;;;;;5011925;28;20069;-65
2023/11/01 07:44:16;;;;;;;0.68;0.50;;;11.00;99.90;;;;;;5023002;28;20076;-66
2023/11/01 07:46:43;;;;;;;0.65;0.38;;;11.00;99.90;;;;;;5020296;28;20116;-66
2023/11/01 07:49:08;;;;;;;0.50;0.30;;;11.00;99.90;;;;;;4999395;28;20050;-65
2023/11/01 07:51:35;;;;;;;0.70;0.38;;;11.10;99.90;;;;;;5015190;28;20033;-65
2023/11/01 07:54:01;;;;;;;0.20;0.20;;;11.00;99.90;;;;;;5020641;28;20392;-65
2023/11/01 07:56:26;;;;;;;0.22;0.22;;;11.10;99.90;;;;;;5021000;28;20026;-65
2023/11/01 07:58:52;;;;;;;0.10;0.10;;;11.10;99.90;;;;;;5016295;28;20058;-64
2023/11/01 08:01:19;;;;;;;0.52;0.40;;;11.10;99.90;;;;;;5018116;28;20049;-64
2023/11/01 08:03:44;;;;;;;3.40;0.20;;;11.10;99.90;;;;;;5018626;28;20430;-64
2023/11/01 08:06:10;;;;;;;0.30;0.20;;;11.10;99.90;;;;;;5002992;28;20076;-65
2023/11/01 08:08:36;;;;;;;0.85;0.40;;;11.10;99.90;;;;;;5016946;28;20379;-66
2023/11/01 08:11:02;;;;;;;0.10;0.10;;;11.10;99.90;;;;;;5012913;28;20084;-66
2023/11/01 08:13:27;;;;;;;0.50;0.25;;;11.10;99.90;;;;;;5018881;28;20053;-65
2023/11/01 08:15:53;;;;;;;0.30;0.10;;;11.10;99.90;;;;;;5024495;28;20387;-64
2023/11/01 08:18:19;;;;;;;0.55;0.40;;;11.20;99.90;;;;;;5021076;28;20046;-65
2023/11/01 08:20:45;;;;;;;0.20;0.15;;;11.20;99.90;;;;;;5012158;28;21491;-65
2023/11/01 08:23:11;;;;;;;0.47;0.30;;;11.20;99.90;;;;;;5017487;28;20049;-65
2023/11/01 08:25:36;;;;;;;0.35;0.25;;;11.30;99.90;;;;;;5022994;28;20406;-65
2023/11/01 08:28:02;;;;;;;0.60;0.30;;;11.30;99.90;;;;;;5016725;28;20199;-65
2023/11/01 08:30:28;;;;;;;1.02;0.50;;;11.30;99.90;;;;;;5014028;28;20030;-65
2023/11/01 08:32:54;;;;;;;0.30;0.10;;;11.40;99.90;;;;;;5018935;28;20122;-65
2023/11/01 08:35:20;;;;;;;0.30;0.30;;;11.40;99.90;;;;;;5019793;28;20059;-64
2023/11/01 08:37:45;;;;;;;0.65;0.50;;;11.40;99.90;;;;;;5012539;28;20059;-64
2023/11/01 08:40:11;;;;;;;1.27;0.50;;;11.50;99.90;;;;;;5019845;28;20549;-64
2023/11/01 08:42:37;;;;;;;0.28;0.20;;;11.50;99.90;;;;;;5020314;28;20033;-64
2023/11/01 08:45:03;;;;;;;1.55;0.60;;;11.50;99.90;;;;;;5021413;28;20547;-65
2023/11/01 08:47:36;;;;;;;0.60;0.50;;;11.50;99.90;;;;;;5011352;28;20034;-65
2023/11/01 08:50:02;;;;;;;0.55;0.40;;;11.60;99.90;;;;;;5011752;28;20220;-66
2023/11/01 08:52:29;;;;;;;0.40;0.32;;;11.60;99.90;;;;;;5019551;28;20030;-65
2023/11/01 08:54:57;;;;;;;0.50;0.40;;;11.70;99.90;;;;;;5017817;28;20225;-66
2023/11/01 08:57:23;;;;;;;0.45;0.30;;;11.70;99.90;;;;;;4984821;28;21193;-65
2023/11/01 08:59:50;;;;;;;0.50;0.30;;;11.80;99.90;;;;;;5015020;28;20517;-66
2023/11/01 09:02:17;;;;;;;1.63;0.60;;;11.70;99.90;;;;;;5023885;28;20050;-66
2023/11/01 09:04:43;;;;;;;2.35;0.68;;;11.80;99.90;;;;;;4998397;28;20037;-66
2023/11/01 09:07:10;;;;;;;0.70;0.40;;;11.80;99.90;;;;;;5012378;28;20049;-66
2023/11/01 09:09:36;;;;;;;0.73;0.55;;;11.80;99.90;;;;;;4998848;28;20432;-65
2023/11/01 09:12:02;;;;;;;0.93;0.60;;;11.90;99.90;;;;;;5007081;28;20119;-65
2023/11/01 09:14:28;;;;;;;0.98;0.68;;;11.90;99.90;;;;;;5017485;28;20471;-66
2023/11/01 09:16:55;;;;;;;2.33;0.90;;;11.90;99.90;;;;;;5011919;28;20050;-66
2023/11/01 09:19:21;;;;;;;1.00;0.88;;;12.00;99.90;;;;;;5017766;28;20505;-66
2023/11/01 09:21:47;;;;;;;1.20;0.73;;;12.00;99.90;;;;;;5016417;28;20121;-66
2023/11/01 09:24:13;;;;;;;1.02;0.73;;;12.10;99.90;;;;;;5020776;28;20183;-66
2023/11/01 09:26:38;;;;;;;1.02;0.57;;;12.20;99.90;;;;;;4995265;28;20130;-66
2023/11/01 09:29:04;;;;;;;2.97;1.02;;;12.20;99.90;;;;;;5016066;28;20446;-66
2023/11/01 09:31:35;;;;;;;1.15;0.68;;;12.30;99.90;;;;;;5020662;28;20076;-66
2023/11/01 09:34:01;;;;;;;7.07;1.17;;;12.40;99.90;;;;;;5017496;28;20029;-66
2023/11/01 09:36:27;;;;;;;1.08;0.70;;;12.50;99.90;;;;;;5003286;28;20457;-66
2023/11/01 09:38:53;;;;;;;5.35;0.75;;;12.40;99.90;;;;;;5018980;28;20046;-66
2023/11/01 09:41:36;;;;;;;2.28;0.88;;;12.50;99.90;;;;;;5017402;28;20034;-66
2023/11/01 09:44:03;;;;;;;2.28;0.90;;;12.60;99.90;;;;;;5015124;28;20065;-66
2023/11/01 09:46:29;;;;;;;2.08;0.65;;;12.70;99.90;;;;;;5011689;28;20595;-66
2023/11/01 09:48:55;;;;;;;3.15;0.63;;;12.60;99.90;;;;;;5019929;28;20135;-66
2023/11/01 09:51:24;;;;;;;5.97;0.60;;;12.70;99.90;;;;;;5018411;28;20087;-66
2023/11/01 09:53:50;;;;;;;11.27;0.73;;;12.70;99.90;;;;;;5012035;28;20056;-66
2023/11/01 09:56:20;;;;;;;5.55;0.70;;;12.80;99.90;;;;;;5011388;28;20108;-66
2023/11/01 09:58:45;;;;;;;1.55;0.73;;;12.80;99.90;;;;;;5016714;28;20042;-66
2023/11/01 10:01:12;;;;;;;0.85;0.50;;;12.90;99.90;;;;;;5018539;28;20042;-66
2023/11/01 10:03:38;;;;;;;2.28;0.52;;;12.90;99.90;;;;;;5014161;28;20484;-66
2023/11/01 10:06:04;;;;;;;0.93;0.60;;;12.90;99.90;;;;;;5007435;28;20045;-66
2023/11/01 10:08:29;;;;;;;4.85;0.60;;;13.00;99.90;;;;;;5016562;28;20038;-66
2023/11/01 10:11:02;;;;;;;1.90;0.63;;;13.00;99.90;;;;;;5007279;28;20111;-66
2023/11/01 10:13:31;;;;;;;0.20;0.10;;;13.10;99.90;;;;;;5002620;28;20857;-66
2023/11/01 10:15:57;;;;;;;1.77;0.50;;;13.10;99.90;;;;;;5015930;28;20486;-66
2023/11/01 10:18:22;;;;;;;6.70;1.20;;;13.10;99.90;;;;;;5012927;28;20136;-66
2023/11/01 10:20:48;;;;;;;0.52;0.40;;;13.10;99.90;;;;;;5011869;28;20034;-66
2023/11/01 10:23:14;;;;;;;0.90;0.40;;;13.10;99.90;;;;;;5009638;28;20038;-66
2023/11/01 10:25:44;;;;;;;10.48;0.75;;;13.10;99.90;;;;;;5018293;28;20045;-67
2023/11/01 10:28:13;;;;;;;0.60;0.28;;;13.00;99.90;;;;;;5012284;28;20042;-66
2023/11/01 10:30:43;;;;;;;0.55;0.20;;;13.10;99.90;;;;;;5025565;28;20049;-66
2023/11/01 10:33:10;;;;;;;4.03;0.60;;;13.10;99.90;;;;;;5008452;28;20045;-66
2023/11/01 10:35:36;;;;;;;8.77;0.65;;;13.10;99.90;;;;;;5007784;28;20050;-66
2023/11/01 10:38:02;;;;;;;1.58;0.38;;;13.10;99.90;;;;;;5015038;28;20502;-66
2023/11/01 10:40:31;;;;;;;2.60;0.35;;;13.10;99.90;;;;;;5008323;28;20041;-66
2023/11/01 10:42:59;;;;;;;1.48;0.40;;;13.20;99.90;;;;;;5014421;28;20034;-66
2023/11/01 10:45:25;;;;;;;0.60;0.50;;;13.10;99.90;;;;;;5013053;28;20108;-66
2023/11/01 10:47:52;;;;;;;0.20;0.20;;;13.10;99.90;;;;;;4997038;28;20447;-67
2023/11/01 10:50:18;;;;;;;3.20;0.50;;;13.10;99.90;;;;;;5009987;28;20034;-66
2023/11/01 10:52:46;;;;;;;0.50;0.35;;;13.20;99.90;;;;;;5005726;28;20409;-66
2023/11/01 10:55:12;;;;;;;3.08;0.40;;;13.20;99.90;;;;;;4994557;28;20042;-66
2023/11/01 10:57:40;;;;;;;0.43;0.30;;;13.40;99.90;;;;;;5009698;28;20402;-66
2023/11/01 11:00:15;;;;;;;3.95;0.40;;;13.60;99.90;;;;;;5014257;28;20041;-67
2023/11/01 11:03:01;;;;;;;0.82;0.40;;;13.70;99.90;;;;;;4989362;28;20046;-66
2023/11/01 11:05:29;;;;;;;2.03;0.65;;;13.80;99.90;;;;;;5011474;28;20052;-66
2023/11/01 11:07:58;;;;;;;0.43;0.20;;;13.80;99.90;;;;;;5013422;28;20111;-66
2023/11/01 11:10:32;;;;;;;0.82;0.55;;;13.90;99.90;;;;;;5006004;28;20054;-65
2023/11/01 11:13:10;;;;;;;6.27;0.70;;;13.90;99.90;;;;;;5009273;28;20085;-65
2023/11/01 11:15:53;;;;;;;1.95;0.40;;;13.80;99.90;;;;;;5012788;28;20489;-66
2023/11/01 11:18:21;;;;;;;2.85;0.52;;;13.80;99.90;;;;;;5012704;28;20054;-65
2023/11/01 11:20:48;;;;;;;0.38;0.22;;;13.70;99.90;;;;;;5012949;28;20045;-65
2023/11/01 11:23:16;;;;;;;3.20;0.38;;;13.70;99.90;;;;;;4988740;28;20375;-66
2023/11/01 11:25:45;;;;;;;0.40;0.30;;;13.60;99.90;;;;;;5015906;28;20117;-66
2023/11/01 11:28:26;;;;;;;2.78;0.40;;;13.70;99.90;;;;;;4992031;28;20076;-65
2023/11/01 11:31:05;;;;;;;0.73;0.30;;;13.70;99.90;;;;;;5009870;28;20096;-66
2023/11/01 11:33:32;;;;;;;1.65;0.35;;;13.70;99.90;;;;;;5012510;28;20103;-66
2023/11/01 11:36:18;;;;;;;0.57;0.22;;;13.80;99.90;;;;;;5011579;28;20096;-66
2023/11/01 11:39:01;;;;;;;1.88;0.47;;;13.80;99.90;;;;;;4988964;28;20054;-66
2023/11/01 11:41:39;;;;;;;0.35;0.10;;;13.80;99.90;;;;;;5015042;28;20045;-66
2023/11/01 11:44:16;;;;;;;4.20;0.43;;;14.00;99.90;;;;;;5014252;28;20041;-66
2023/11/01 11:46:42;;;;;;;1.17;0.30;;;14.00;99.90;;;;;;4993312;28;20080;-66
2023/11/01 11:49:26;;;;;;;3.75;0.45;;;14.00;99.90;;;;;;5012739;28;20033;-66
2023/11/01 11:52:00;;;;;;;1.25;0.10;;;14.00;99.90;;;;;;5012945;28;20042;-66
2023/11/01 11:54:27;;;;;;;0.47;0.17;;;13.90;99.90;;;;;;5012730;28;20037;-66
2023/11/01 11:56:54;;;;;;;0.30;0.20;;;13.90;99.90;;;;;;5004999;28;20049;-66
2023/11/01 11:59:21;;;;;;;0.32;0.20;;;13.90;99.90;;;;;;5005763;28;20461;-66
2023/11/01 12:01:48;;;;;;;5.13;0.40;;;13.90;99.90;;;;;;5016885;28;20042;-66
2023/11/01 12:04:15;;;;;;;0.93;0.30;;;14.00;99.90;;;;;;5012634;28;20042;-65
2023/11/01 12:06:50;;;;;;;0.82;0.30;;;14.00;99.90;;;;;;5009959;28;20133;-66
2023/11/01 12:09:22;;;;;;;5.40;0.40;;;14.00;99.90;;;;;;5002503;28;20528;-66
2023/11/01 12:11:59;;;;;;;0.63;0.50;;;14.00;99.90;;;;;;5010563;28;20076;-66
2023/11/01 12:14:26;;;;;;;2.15;0.28;;;14.00;99.90;;;;;;5012039;28;20128;-66
2023/11/01 12:16:54;;;;;;;2.97;0.30;;;14.00;99.90;;;;;;5002465;28;20101;-66
2023/11/01 12:19:24;;;;;;;0.60;0.10;;;14.00;99.90;;;;;;4991518;28;20041;-66
2023/11/01 12:21:54;;;;;;;2.55;0.20;;;13.90;99.90;;;;;;5013535;28;20042;-65
2023/11/01 12:24:22;;;;;;;0.88;0.20;;;13.90;99.90;;;;;;5003271;28;20068;-66
2023/11/01 12:26:57;;;;;;;0.35;0.13;;;13.90;99.90;;;;;;5007193;28;20033;-66
2023/11/01 12:29:23;;;;;;;3.05;0.25;;;13.80;99.90;;;;;;5016496;28;20052;-66
2023/11/01 12:32:15;;;;;;;5.80;0.40;;;13.90;99.90;;;;;;4998472;28;20037;-66
2023/11/01 12:35:05;;;;;;;0.55;0.20;;;14.00;99.90;;;;;;5016436;28;20077;-67
2023/11/01 12:37:33;;;;;;;0.13;0.10;;;14.10;99.90;;;;;;5014742;28;20048;-67
2023/11/01 12:40:16;;;;;;;0.20;0.10;;;14.20;99.90;;;;;;5003375;28;20394;-66
2023/11/01 12:42:50;;;;;;;0.93;0.13;;;14.30;99.90;;;;;;5016612;28;20073;-66
2023/11/01 12:45:17;;;;;;;0.57;0.45;;;14.40;99.90;;;;;;5021573;28;20049;-67
2023/11/01 12:47:46;;;;;;;1.45;0.30;;;14.50;99.90;;;;;;5009574;28;20315;-66
2023/11/01 12:50:20;;;;;;;4.18;0.30;;;14.50;99.90;;;;;;5014401;28;20072;-66